Sutton, Vermont
Current Conditions -  °F | °C
As of 10:35 PM on Wednesday 22 Oct 2014 (Local Time) from KCDA Reporting Station
Overcast Overcast  
Wind Chill: 44°   Ceiling: 2000
Heat Index: 48°   Visibility: 10mi
Dew Point: 40°   Wind: 12mph
Humidity: 72%   Direction: 330°NNW
Pressure: 30.09"   Gusts: NA
Location:  44.63°N, 72.03°W
Report Text: KCDA 230235Z AUTO 33010KT 10SM OVC020 09/04 A3009 RMK AO2 T00910042
Loading
Personal Weather Stations






























Interactive Weather Map
Tropical Storm Tracking
New forecast layout! Learn more

10-Day Weather Forecast

Advertisements
Track Severe Weather on mobile